Latest Weather Observations for Perth Airport

IDW60901

Issued at 6:35 pm WST Wednesday 16 April 2014 (issued every 10 minutes, with the page automatically refreshed every 10 minutes)

About weather observations | Map of Perth area stations | Latest observations for Perth area | Other Formats
Station Details ID: 009021 Name: PERTH AIRPORT Lat: -31.93 Lon: 115.98 Height: 15.4 m
Data from the previous 72 hours. | See also: Recent months at Perth Airport
Date/Time
WST
Tmp

°C
App
Tmp
°C
Dew
Point
°C
Rel
Hum
%
Delta-T

°C
Wind Press
QNH
hPa
Press
MSL
hPa
Rain
since
9 am
mm
Dir
 
Spd
km/h
Gust
km/h
Spd
kts
Gust
kts
16/06:30pm 19.5 16.9 12.1 62 4.1 SW 17 22 9 12 1019.9 - 0.0
16/06:00pm 20.0 16.9 12.3 61 4.3 SW 20 26 11 14 1019.6 1019.6 0.0
16/05:30pm 20.9 17.1 12.4 58 4.8 SW 24 30 13 16 1019.6 - 0.0
16/05:00pm 22.0 18.6 12.5 54 5.4 SW 22 28 12 15 1019.5 - 0.0
16/04:30pm 22.6 19.6 12.6 53 5.7 WSW 20 26 11 14 1019.5 - 0.0
16/04:00pm 23.3 19.7 13.0 52 5.9 SW 24 32 13 17 1019.5 - 0.0
16/03:30pm 23.7 21.1 13.8 53 5.8 SW 20 30 11 16 1019.5 - 0.0
16/03:00pm 24.5 21.9 13.7 51 6.3 SW 20 30 11 16 1019.6 1019.6 0.0
16/02:30pm 24.3 21.9 12.8 48 6.6 SW 17 22 9 12 1019.8 - 0.0
16/02:00pm 23.2 20.4 13.3 53 5.7 SW 20 26 11 14 1020.0 - 0.0
16/01:30pm 24.7 22.7 12.7 47 6.9 SW 15 22 8 12 1020.1 - 0.0
16/01:00pm 24.2 21.9 12.9 49 6.5 W 17 24 9 13 1020.4 - 0.0
16/12:30pm 23.2 22.4 12.9 52 5.9 S 9 15 5 8 1020.9 - 0.0
16/12:00pm 22.8 22.5 13.2 54 5.5 E 7 13 4 7 1021.6 1021.6 0.0
16/11:30am 23.3 23.9 13.2 53 5.8 ESE 2 7 1 4 1022.0 - 0.0
16/11:00am 21.8 22.6 13.6 59 4.7 ESE 2 7 1 4 1022.4 - 0.0
16/10:30am 21.1 20.5 13.6 62 4.3 ESE 9 13 5 7 1022.8 - 0.0
16/10:00am 20.6 19.9 14.2 66 3.7 E 11 17 6 9 1023.1 - 0.0
16/09:30am 19.8 19.3 13.7 68 3.5 ENE 9 11 5 6 1023.3 - 0.0
16/09:00am 19.4 18.3 14.2 72 3.0 E 13 19 7 10 1023.3 1023.4 0.0
16/08:30am 18.7 18.0 14.2 75 2.6 ENE 11 17 6 9 1023.3 - 0.0
16/08:00am 18.3 17.3 14.5 78 2.2 ENE 13 15 7 8 1023.3 - 0.0
16/07:30am 17.8 18.1 14.9 83 1.7 E 7 11 4 6 1022.9 - 0.0
16/07:00am 16.9 16.7 14.8 87 1.2 ESE 9 13 5 7 1022.5 - 0.0
16/06:30am 17.0 16.1 14.9 87 1.2 ENE 13 15 7 8 1022.3 - 0.0
16/06:00am 16.9 16.1 15.0 88 1.1 E 13 15 7 8 1022.2 1022.2 0.0
16/05:30am 17.1 16.2 14.8 86 1.3 ESE 13 17 7 9 1022.2 - 0.0
16/05:00am 17.9 17.3 15.7 87 1.3 SE 13 19 7 10 1021.8 - 0.0
16/04:55am 17.8 17.2 15.6 87 1.3 SE 13 17 7 9 1021.8 - 0.0
16/04:30am 18.2 17.2 16.7 91 0.9 S 17 22 9 12 1021.7 - 0.0
16/04:00am 17.8 17.2 16.6 93 0.7 SSE 15 17 8 9 1021.5 - 0.0
16/03:30am 17.9 17.7 16.7 93 0.7 S 13 17 7 9 1021.5 - 0.0
16/03:20am 18.0 17.0 16.7 92 0.8 S 17 20 9 11 1021.5 - 0.0
16/03:00am 18.2 18.0 16.7 91 0.9 S 13 17 7 9 1021.4 1021.4 0.0
16/02:30am 18.2 17.6 16.7 91 0.9 S 15 17 8 9 1021.7 - 0.0
16/02:20am 18.1 17.6 16.8 92 0.8 S 15 19 8 10 1021.7 - 0.0
16/02:13am 18.1 17.2 16.8 92 0.8 SSW 17 20 9 11 1021.7 - 0.0
16/02:00am 18.1 17.1 16.6 91 0.9 SSW 17 24 9 13 1021.7 - 0.0
16/01:30am 18.7 17.6 16.4 86 1.4 SSW 17 22 9 12 1021.8 - 0.0
16/01:00am 19.2 17.4 15.6 79 2.1 S 19 20 10 11 1021.8 - 0.0
16/12:30am 17.9 17.9 15.1 84 1.6 SSE 9 11 5 6 1021.8 - 0.0
16/12:00am 18.2 17.7 14.9 81 1.9 SSE 11 13 6 7 1021.9 1021.9 0.0
 
Date/Time
WST
Tmp

°C
App
Tmp
°C
Dew
Point
°C
Rel
Hum
%
Delta-T

°C
Wind Press
QNH
hPa
Press
MSL
hPa
Rain
since
9 am
mm
Dir
 
Spd
km/h
Gust
km/h
Spd
kts
Gust
kts
15/11:30pm 18.1 18.5 14.8 81 1.9 SE 6 7 3 4 1022.2 - 0.0
15/11:00pm 17.4 17.6 14.2 81 1.8 SSE 6 9 3 5 1022.4 - 0.0
15/10:30pm 17.2 17.4 14.6 85 1.5 SSE 7 9 4 5 1022.5 - 0.0
15/10:00pm 18.5 18.7 14.7 78 2.2 ESE 7 9 4 5 1022.6 - 0.0
15/09:30pm 18.4 18.6 14.6 78 2.2 ESE 7 9 4 5 1022.8 - 0.0
15/09:00pm 18.7 18.5 14.7 77 2.3 SSE 9 11 5 6 1022.7 1022.7 0.0
15/08:30pm 20.3 20.1 14.8 70 3.2 SSW 9 15 5 8 1022.7 - 0.0
15/08:00pm 20.8 19.6 15.0 69 3.4 SSW 15 19 8 10 1022.6 - 0.0
15/07:30pm 21.3 20.7 14.6 65 3.9 SSW 11 15 6 8 1022.3 - 0.0
15/07:00pm 21.7 19.9 14.5 63 4.2 SSW 17 20 9 11 1022.2 - 0.0
15/06:30pm 21.8 19.7 13.6 59 4.7 SSW 17 20 9 11 1021.8 - 0.0
15/06:00pm 21.9 19.3 13.2 57 5.0 SW 19 26 10 14 1021.7 1021.7 0.0
15/05:30pm 21.9 19.1 13.2 57 5.0 SW 20 30 11 16 1021.5 - 0.0
15/05:00pm 22.2 18.6 13.1 56 5.2 SW 24 33 13 18 1021.3 - 0.0
15/04:30pm 22.7 19.8 12.9 54 5.6 SW 20 26 11 14 1021.2 - 0.0
15/04:00pm 23.7 20.6 13.3 52 6.0 W 22 30 12 16 1020.9 - 0.0
15/03:30pm 23.9 21.2 13.4 51 6.1 W 20 28 11 15 1020.7 - 0.0
15/03:00pm 24.2 21.4 13.1 50 6.4 W 20 33 11 18 1020.8 1020.8 0.0
15/02:30pm 24.4 20.5 12.1 46 7.0 WSW 24 30 13 16 1020.7 - 0.0
15/02:00pm 24.9 21.5 12.5 46 7.1 W 22 32 12 17 1020.6 - 0.0
15/01:30pm 24.6 21.2 11.2 43 7.5 SSW 20 30 11 16 1020.8 - 0.0
15/01:00pm 24.2 20.5 12.7 48 6.6 WSW 24 32 13 17 1020.9 - 0.0
15/12:30pm 24.3 20.5 12.4 47 6.8 W 24 35 13 19 1021.2 - 0.0
15/12:00pm 24.3 21.2 13.5 51 6.3 W 22 32 12 17 1021.2 1021.2 0.0
15/11:30am 24.4 21.9 14.0 52 6.1 WSW 20 28 11 15 1021.1 - 0.0
15/11:00am 24.1 23.5 14.7 55 5.6 WSW 11 17 6 9 1021.1 - 0.0
15/10:30am 23.6 23.7 15.4 60 4.9 W 9 17 5 9 1021.1 - 0.0
15/10:00am 22.9 23.1 15.7 64 4.3 SW 9 15 5 8 1021.2 - 0.0
15/09:30am 22.5 23.5 16.8 70 3.5 N 7 11 4 6 1021.3 - 0.0
15/09:00am 21.3 22.1 17.4 78 2.4 N 9 15 5 8 1021.5 1021.5 0.0
15/08:30am 19.4 20.2 17.3 88 1.3 N 9 13 5 7 1021.3 - 0.0
15/08:00am 18.0 18.3 17.0 94 0.6 N 11 15 6 8 1021.1 - 0.0
15/07:30am 16.9 17.3 16.4 97 0.3 NE 9 13 5 7 1020.9 - 0.0
15/07:00am 16.6 16.5 16.1 97 0.3 NNE 11 15 6 8 1020.5 - 0.0
15/06:44am 16.0 16.2 15.7 98 0.2 N 9 13 5 7 1020.4 - 0.0
15/06:30am 15.9 15.7 15.6 98 0.2 N 11 13 6 7 1020.2 - 0.0
15/06:27am 15.8 15.4 15.3 97 0.3 N 11 13 6 7 1020.1 - 0.0
15/06:12am 14.8 14.1 14.3 97 0.3 NNW 11 13 6 7 1020.0 - 0.0
15/06:00am 14.9 14.9 14.2 96 0.4 NNW 7 9 4 5 1019.8 1019.8 0.0
15/05:48am 14.8 14.5 14.4 97 0.2 NW 9 11 5 6 1019.7 - 0.0
15/05:30am 15.1 14.9 14.7 97 0.2 WNW 9 9 5 5 1019.5 - 0.0
15/05:00am 15.6 15.9 15.1 97 0.3 WNW 7 7 4 4 1019.5 - 0.0
15/04:30am 15.7 16.1 15.2 97 0.3 WNW 7 9 4 5 1019.5 - 0.0
15/04:00am 16.2 16.7 15.5 96 0.4 WNW 7 7 4 4 1019.6 - 0.0
15/03:30am 16.9 17.2 16.1 95 0.5 WNW 9 11 5 6 1019.5 - 0.0
15/03:00am 16.9 17.8 16.2 96 0.4 SSW 6 7 3 4 1019.6 1019.6 0.0
15/02:30am 17.0 19.1 16.3 96 0.4 CALM 0 - 0 - 1019.7 - 0.0
15/02:00am 17.5 18.7 16.8 96 0.4 SSW 6 7 3 4 1019.8 - 0.0
15/01:30am 17.9 18.5 16.9 94 0.6 SSW 9 9 5 5 1019.7 - 0.0
15/01:24am 18.0 18.6 16.8 93 0.7 SW 9 9 5 5 1019.7 - 0.0
15/01:00am 18.4 19.2 17.2 93 0.7 WSW 9 11 5 6 1019.7 - 0.0
15/12:30am 18.4 19.5 17.1 92 0.8 W 7 9 4 5 1019.5 - 0.0
15/12:00am 18.5 19.5 16.8 90 1.0 SW 7 9 4 5 1019.4 1019.4 0.0
 
Date/Time
WST
Tmp

°C
App
Tmp
°C
Dew
Point
°C
Rel
Hum
%
Delta-T

°C
Wind Press
QNH
hPa
Press
MSL
hPa
Rain
since
9 am
mm
Dir
 
Spd
km/h
Gust
km/h
Spd
kts
Gust
kts
14/11:56pm 17.8 18.9 17.0 95 0.5 SSW 7 11 4 6 1019.4 - 0.0
14/11:30pm 18.6 19.3 17.1 91 0.9 W 9 13 5 7 1019.5 - 0.0
14/11:00pm 20.5 21.7 18.2 87 1.4 WSW 9 11 5 6 1019.8 - 0.0
14/10:30pm 20.8 22.0 18.2 85 1.6 WSW 9 15 5 8 1020.0 - 0.0
14/10:13pm 21.0 22.2 18.3 84 1.7 WSW 9 11 5 6 1020.0 - 0.0
14/10:00pm 21.0 22.3 18.4 85 1.6 WSW 9 11 5 6 1020.0 - 0.0
14/09:30pm 21.1 22.4 18.4 84 1.7 SSW 9 11 5 6 1020.1 - 0.0
14/09:00pm 21.5 22.4 18.3 82 2.0 SSW 11 15 6 8 1020.1 1020.1 0.0
14/08:30pm 21.9 22.5 18.7 82 2.0 SW 13 17 7 9 1020.1 - 0.0
14/08:00pm 22.1 22.8 18.8 81 2.1 SW 13 17 7 9 1019.8 - 0.0
14/07:30pm 22.3 22.5 18.5 79 2.4 SW 15 17 8 9 1019.6 - 0.0
14/07:00pm 22.5 22.9 19.0 80 2.2 WSW 15 17 8 9 1019.4 - 0.0
14/06:30pm 23.1 23.0 17.8 72 3.3 WSW 15 20 8 11 1019.2 - 0.0
14/06:00pm 24.1 22.9 16.0 60 4.9 WSW 17 24 9 13 1018.8 1018.8 0.0
14/05:30pm 25.3 23.9 15.5 54 5.9 SW 17 20 9 11 1018.5 - 0.0
14/05:00pm 26.6 25.6 15.6 50 6.7 SSW 15 20 8 11 1018.3 - 0.0
14/04:30pm 27.0 26.7 16.5 52 6.5 SW 13 19 7 10 1018.2 - 0.0
14/04:00pm 27.5 28.1 16.9 52 6.6 SW 9 17 5 9 1018.2 - 0.0
14/03:30pm 27.6 27.6 18.0 55 6.1 SW 15 20 8 11 1018.2 - 0.0
14/03:00pm 28.0 28.2 17.7 53 6.5 WSW 13 19 7 10 1018.2 1018.2 0.0
14/02:30pm 28.1 28.4 17.8 53 6.5 WSW 13 20 7 11 1018.1 - 0.0
14/02:00pm 28.7 28.6 17.8 51 6.9 WSW 15 20 8 11 1018.0 - 0.0
14/01:30pm 29.0 28.5 16.9 48 7.6 WSW 15 22 8 12 1018.1 - 0.0
14/01:00pm 29.0 28.2 17.2 49 7.4 WSW 17 28 9 15 1018.3 - 0.0
14/12:30pm 30.4 30.2 17.7 46 8.1 W 15 19 8 10 1018.6 - 0.0
14/12:00pm 30.1 29.1 14.6 39 9.4 WNW 13 19 7 10 1019.0 1019.0 0.0
14/11:30am 30.1 27.9 13.3 35 10.0 WNW 17 24 9 13 1019.1 - 0.0
14/11:00am 29.6 28.2 13.3 36 9.7 NW 13 19 7 10 1019.3 - 0.0
14/10:30am 28.1 27.2 13.8 41 8.5 N 11 19 6 10 1019.4 - 0.0
14/10:00am 26.9 25.7 13.9 44 7.7 N 13 17 7 9 1019.6 - 0.0
14/09:30am 25.1 24.8 14.3 51 6.4 N 9 13 5 7 1019.9 - 0.0
14/09:00am 23.2 22.6 14.6 58 5.1 NNW 11 15 6 8 1020.0 1020.0 0.0
14/08:30am 22.5 21.9 14.5 60 4.7 NNE 11 15 6 8 1019.8 - 0.0
14/08:00am 21.2 20.5 14.3 64 4.0 NNE 11 15 6 8 1019.6 - 0.0
14/07:30am 20.0 18.9 14.3 69 3.3 NE 13 19 7 10 1019.3 - 0.0
14/07:00am 19.0 18.3 14.3 74 2.7 NE 11 17 6 9 1019.0 - 0.0
14/06:30am 19.2 17.4 14.4 74 2.8 NE 17 28 9 15 1018.9 - 0.0
14/06:00am 20.2 18.7 14.3 69 3.4 NE 15 22 8 12 1018.5 1018.5 0.0
14/05:30am 20.2 18.3 14.3 69 3.4 NE 17 24 9 13 1018.2 - 0.0
14/05:00am 20.4 18.2 14.4 68 3.5 NE 19 26 10 14 1018.0 - 0.0
14/04:30am 21.0 19.1 14.3 65 3.9 NE 17 20 9 11 1017.8 - 0.0
14/04:00am 21.4 19.7 14.6 65 4.0 NNE 17 19 9 10 1017.8 - 0.0
14/03:30am 21.8 20.0 14.5 63 4.3 NE 17 22 9 12 1017.7 - 0.0
14/03:00am 21.8 20.4 14.5 63 4.3 NNE 15 19 8 10 1017.8 1017.8 0.0
14/02:30am 20.2 19.2 14.5 69 3.3 NNE 13 15 7 8 1017.8 - 0.0
14/02:00am 18.8 18.1 14.3 75 2.6 N 11 13 6 7 1018.1 - 0.0
14/01:30am 19.7 18.6 14.3 71 3.1 NNE 13 17 7 9 1018.2 - 0.0
14/01:00am 19.1 18.4 14.4 74 2.7 NE 11 13 6 7 1018.5 - 0.0
14/12:30am 17.2 17.2 14.2 82 1.7 W 7 9 4 5 1018.6 - 0.0
14/12:00am 17.3 17.3 14.1 81 1.8 W 7 9 4 5 1018.8 1018.8 0.0
 
Date/Time
WST
Tmp

°C
App
Tmp
°C
Dew
Point
°C
Rel
Hum
%
Delta-T

°C
Wind Press
QNH
hPa
Press
MSL
hPa
Rain
since
9 am
mm
Dir
 
Spd
km/h
Gust
km/h
Spd
kts
Gust
kts
13/11:30pm 17.7 17.9 14.2 80 2.0 S 6 9 3 5 1019.1 - 0.0
13/11:00pm 18.3 18.3 14.3 77 2.3 S 7 9 4 5 1019.1 - 0.0
13/10:30pm 19.0 20.1 14.7 76 2.5 S 2 7 1 4 1019.1 - 0.0
13/10:00pm 19.4 19.6 14.6 74 2.8 S 7 9 4 5 1019.1 - 0.0
13/09:30pm 20.6 20.5 15.0 70 3.3 SSW 9 11 5 6 1019.3 - 0.0
13/09:00pm 22.4 22.1 14.4 60 4.7 SW 9 13 5 7 1019.1 1019.1 0.0
13/08:30pm 24.3 23.3 14.7 55 5.7 SW 13 20 7 11 1018.9 - 0.0
13/08:00pm 25.2 24.5 14.4 51 6.4 S 11 19 6 10 1018.7 - 0.0
13/07:30pm 26.1 24.9 13.9 47 7.2 SSW 13 15 7 8 1018.7 - 0.0
13/07:00pm 26.5 25.6 14.9 49 7.0 SW 13 19 7 10 1018.5 - 0.0

Latest Capital City Observations: Canberra | Sydney | Melbourne | Brisbane | Adelaide | Perth | Hobart | Darwin

Other Formats:

Comma delimited format used in spreadsheet applications
http://www.bom.gov.au/fwo/IDW60901/IDW60901.94610.axf

JavaScript Object Notation format (JSON) in row-major order
http://www.bom.gov.au/fwo/IDW60901/IDW60901.94610.json